createdAt,value
2019-02-20T00:01:36.589Z,6.24
2019-02-20T00:07:41.154Z,6.01
2019-02-20T00:13:46.051Z,5.93
2019-02-20T00:19:50.689Z,5.58
2019-02-20T00:25:55.471Z,5.39
2019-02-20T00:32:00.441Z,5.74
2019-02-20T00:38:05.538Z,5.72
2019-02-20T00:44:14.460Z,5.92
2019-02-20T00:50:22.304Z,6.01
2019-02-20T00:56:27.109Z,5.93
2019-02-20T01:02:32.313Z,5.95
2019-02-20T01:08:37.006Z,6.06
2019-02-20T01:14:41.718Z,6.00
2019-02-20T01:20:46.518Z,5.99
2019-02-20T01:26:51.219Z,5.98
2019-02-20T01:32:55.768Z,6.03
2019-02-20T01:39:00.883Z,6.08
2019-02-20T01:45:09.549Z,6.08
2019-02-20T01:51:14.174Z,6.32
2019-02-20T01:57:18.761Z,6.33
2019-02-20T02:03:23.593Z,6.48
2019-02-20T02:09:28.491Z,6.65
2019-02-20T02:15:34.025Z,6.52
2019-02-20T02:21:38.582Z,6.47
2019-02-20T02:27:43.224Z,6.49
2019-02-20T02:33:47.940Z,6.58
2019-02-20T02:39:53.357Z,6.61
2019-02-20T02:45:58.347Z,6.59
2019-02-20T02:52:03.021Z,6.66
2019-02-20T02:58:07.964Z,6.64
2019-02-20T03:04:12.740Z,6.64
2019-02-20T03:10:17.519Z,6.63
2019-02-20T03:16:22.329Z,6.56
2019-02-20T03:22:27.631Z,6.56
2019-02-20T03:28:32.546Z,6.47
2019-02-20T03:34:37.323Z,6.51
2019-02-20T03:40:41.906Z,6.58
2019-02-20T03:46:46.690Z,6.62
2019-02-20T03:52:51.519Z,6.61
2019-02-20T03:58:56.258Z,6.63
2019-02-20T04:05:01.388Z,6.65
2019-02-20T04:11:06.184Z,6.61
2019-02-20T04:17:11.412Z,6.58
2019-02-20T04:23:16.245Z,6.57
2019-02-20T04:29:20.963Z,6.56
2019-02-20T04:35:25.989Z,6.46
2019-02-20T04:41:31.126Z,6.46
2019-02-20T04:47:35.896Z,6.43
2019-02-20T04:53:40.449Z,6.44
2019-02-20T04:59:45.037Z,6.44
2019-02-20T05:05:49.713Z,6.43
2019-02-20T05:11:55.252Z,6.42
2019-02-20T05:18:00.231Z,6.45
2019-02-20T05:24:04.930Z,6.46
2019-02-20T05:30:10.175Z,6.43
2019-02-20T05:36:14.816Z,6.52
2019-02-20T05:42:21.149Z,6.32
2019-02-20T05:48:25.902Z,6.03
2019-02-20T05:54:34.352Z,6.05
2019-02-20T06:00:37.372Z,6.06
2019-02-20T06:06:42.085Z,5.98
2019-02-20T06:12:46.844Z,5.96
2019-02-20T06:18:52.311Z,5.97
2019-02-20T06:24:56.972Z,5.89
2019-02-20T06:31:01.865Z,5.83
2019-02-20T06:37:06.719Z,5.77
2019-02-20T06:43:11.866Z,5.76
2019-02-20T06:49:16.500Z,5.66
2019-02-20T06:55:21.073Z,5.84
2019-02-20T07:01:26.452Z,5.71
2019-02-20T07:08:08.394Z,5.85
2019-02-20T07:14:45.884Z,5.96
2019-02-20T07:21:09.686Z,5.96
2019-02-20T07:27:24.739Z,5.88
2019-02-20T07:33:29.435Z,5.93
2019-02-20T07:39:34.633Z,6.06
2019-02-20T07:45:39.186Z,6.14
2019-02-20T07:51:43.759Z,6.26
2019-02-20T07:57:48.385Z,6.13
2019-02-20T08:03:52.956Z,6.26
2019-02-20T08:09:57.521Z,6.44
2019-02-20T08:16:02.349Z,6.71
2019-02-20T08:22:08.803Z,6.68
2019-02-20T08:28:13.651Z,6.95
2019-02-20T08:34:18.217Z,7.20
2019-02-20T08:40:22.844Z,7.25
2019-02-20T08:46:27.543Z,7.32
2019-02-20T08:52:32.743Z,7.89
2019-02-20T08:58:37.503Z,8.02
2019-02-20T09:04:42.150Z,7.73
2019-02-20T09:10:46.885Z,8.14
2019-02-20T09:16:51.609Z,8.50
2019-02-20T09:22:56.215Z,8.55
2019-02-20T09:29:00.963Z,8.56
2019-02-20T09:35:07.642Z,8.64
2019-02-20T09:41:12.412Z,8.87
2019-02-20T09:47:17.097Z,9.13
2019-02-20T09:53:21.663Z,9.01
2019-02-20T09:59:26.519Z,9.24
2019-02-20T10:05:31.573Z,9.13
2019-02-20T10:11:36.183Z,9.17
2019-02-20T10:17:40.821Z,8.96
2019-02-20T10:23:46.332Z,9.27
2019-02-20T10:29:50.919Z,9.45
2019-02-20T10:35:55.777Z,9.54
2019-02-20T10:42:00.818Z,9.43
2019-02-20T10:48:05.540Z,9.35
2019-02-20T10:54:10.737Z,9.63
2019-02-20T11:00:24.641Z,9.65
2019-02-20T11:06:30.328Z,9.91
2019-02-20T11:12:35.037Z,10.12
2019-02-20T11:18:39.823Z,10.17
2019-02-20T11:24:44.515Z,10.61
2019-02-20T11:30:49.080Z,10.92
2019-02-20T11:36:53.787Z,10.98
2019-02-20T11:42:59.132Z,10.79
2019-02-20T11:49:03.926Z,10.70
2019-02-20T11:55:14.112Z,10.82
2019-02-20T12:01:18.825Z,10.59
2019-02-20T12:07:23.523Z,10.78
2019-02-20T12:13:28.171Z,10.55
2019-02-20T12:19:33.194Z,11.01
2019-02-20T12:25:37.951Z,10.97
2019-02-20T12:31:42.720Z,10.99
2019-02-20T12:37:47.299Z,10.98
2019-02-20T12:43:51.994Z,11.23
2019-02-20T12:49:56.802Z,11.51
2019-02-20T12:56:09.868Z,11.54
2019-02-20T13:02:08.741Z,11.52
2019-02-20T14:00:59.944Z,12.57
2019-02-20T14:07:04.922Z,11.63
2019-02-20T14:13:09.851Z,11.43
2019-02-20T14:19:14.430Z,11.60
2019-02-20T14:25:19.308Z,11.72
2019-02-20T14:31:24.128Z,11.43
2019-02-20T14:37:29.608Z,11.49
2019-02-20T14:43:34.986Z,11.53
2019-02-20T14:49:39.659Z,11.60
2019-02-20T14:55:44.734Z,11.66
2019-02-20T15:01:49.494Z,11.45
2019-02-20T15:07:54.135Z,11.25
2019-02-20T15:13:59.062Z,11.11
2019-02-20T15:20:04.171Z,11.02
2019-02-20T15:26:09.390Z,11.02
2019-02-20T15:32:13.962Z,11.04
2019-02-20T15:38:18.538Z,11.02
2019-02-20T15:44:23.429Z,11.02
2019-02-20T15:50:27.998Z,11.31
2019-02-20T15:56:32.706Z,11.34
2019-02-20T16:02:37.344Z,11.40
2019-02-20T16:08:41.991Z,11.27
2019-02-20T16:14:46.552Z,10.87
2019-02-20T16:20:51.297Z,10.72
2019-02-20T16:26:55.938Z,10.77
2019-02-20T16:33:01.453Z,10.54
2019-02-20T16:39:07.261Z,10.28
2019-02-20T16:45:24.319Z,10.05
2019-02-20T16:51:29.321Z,9.87
2019-02-20T16:57:34.172Z,9.47
2019-02-20T17:03:39.065Z,9.11
2019-02-20T17:09:44.052Z,8.89
2019-02-20T17:15:48.770Z,8.66
2019-02-20T17:21:53.460Z,8.26
2019-02-20T17:28:05.501Z,8.05
2019-02-20T17:34:04.919Z,7.94
2019-02-20T17:40:13.961Z,7.88
2019-02-20T17:46:18.763Z,7.87
2019-02-20T17:52:23.497Z,7.80
2019-02-20T17:58:28.719Z,7.63
2019-02-20T18:04:35.945Z,7.58
2019-02-20T18:10:40.382Z,7.63
2019-02-20T18:16:45.015Z,7.60
2019-02-20T18:22:49.749Z,7.64
2019-02-20T18:28:54.313Z,7.71
2019-02-20T18:34:58.945Z,7.57
2019-02-20T18:41:04.022Z,7.59
2019-02-20T18:47:08.661Z,7.48
2019-02-20T18:53:13.364Z,7.39
2019-02-20T18:59:17.998Z,7.14
2019-02-20T19:05:22.722Z,7.08
2019-02-20T19:11:37.741Z,6.91
2019-02-20T19:18:15.714Z,6.85
2019-02-20T19:25:15.180Z,6.77
2019-02-20T19:31:41.097Z,6.82
2019-02-20T19:38:09.504Z,6.71
2019-02-20T19:44:38.446Z,6.64
2019-02-20T19:51:08.807Z,6.59
2019-02-20T19:57:39.233Z,6.67
2019-02-20T20:04:09.103Z,6.84
2019-02-20T20:10:26.734Z,6.71
2019-02-20T20:16:52.322Z,6.71
2019-02-20T20:23:26.875Z,6.56
2019-02-20T20:30:18.923Z,6.48
2019-02-20T20:37:14.483Z,6.53
2019-02-20T20:43:51.623Z,6.44
2019-02-20T20:50:06.788Z,6.22
2019-02-20T20:56:43.438Z,6.44
2019-02-20T21:02:52.763Z,6.27
2019-02-20T21:09:02.461Z,6.59
2019-02-20T21:15:31.241Z,6.50
2019-02-20T21:22:03.041Z,6.57
2019-02-20T21:28:31.194Z,6.66
2019-02-20T21:35:01.587Z,6.66
2019-02-20T21:41:16.669Z,6.81
2019-02-20T21:47:43.664Z,6.80
2019-02-20T21:53:59.404Z,6.59
2019-02-20T22:00:27.890Z,6.67
2019-02-20T22:06:56.819Z,6.70
2019-02-20T22:13:27.571Z,6.61
2019-02-20T22:19:45.636Z,6.55
2019-02-20T22:26:09.829Z,6.51
2019-02-20T22:32:43.265Z,6.59
2019-02-20T22:39:18.110Z,6.52
2019-02-20T22:45:36.792Z,6.34
2019-02-20T22:52:04.237Z,6.33
2019-02-20T22:58:21.796Z,6.29
2019-02-20T23:04:36.614Z,6.16
2019-02-20T23:10:54.316Z,6.16
2019-02-20T23:16:58.986Z,6.07
2019-02-20T23:23:04.005Z,6.06
2019-02-20T23:29:08.601Z,5.94
2019-02-20T23:35:13.350Z,5.97
2019-02-20T23:41:18.088Z,5.71
2019-02-20T23:47:22.722Z,5.44
2019-02-20T23:53:27.310Z,5.30
2019-02-20T23:59:32.413Z,5.33
